Wednesday, April 25, 2018, 5:03 AM GMT
Back to Local

CWQV, Puinte Claveau

Location: , , Canada Lat: 48.267
Local Time: 5:03 AM GMT ( 5:03 GMT) Lon: -70.117
Time Zone: GMT Elev: 0 ft

Show me the last for .
Show Coded

Time T Td Feel RH Dir Speed Gust Alt SLP Vis Weather Sky Remarks
2018-04-25 04:00 40 - 36 0 80° 5 - - - 0 None
2018-04-25 03:00 41 - - 0 110° 1 - - - 0 None
2018-04-25 02:00 45 - 41 0 70° 7 - - - 0 None
2018-04-25 01:00 48 - 46 0 60° 5 - - - 0 None
2018-04-25 00:00 48 - 45 0 70° 6 - - - 0 None
2018-04-24 23:00 53 - - 0 270° 2 - - - 0 None
2018-04-24 22:00 53 - - 0 270° 6 - - - 0 None
2018-04-24 21:00 60 - - 0 280° 14 - - - 0 Peak wind: 20 mph (18 kts) from 280° at 04 min
2018-04-24 20:00 63 - - 0 280° 14 - - - 0 Peak wind: 20 mph (18 kts) from 280° at 25 min
2018-04-24 19:00 64 - - 0 280° 15 - - - 0 Peak wind: 21 mph (19 kts) from 280° at 48 min
2018-04-24 18:00 54 - - 0 220° 5 - - - 0 None
2018-04-24 17:00 50 - - 0 100° 2 - - - 0 None
2018-04-24 16:00 48 - 47 0 270° 3 - - - 0 None
2018-04-24 15:00 43 - 42 0 280° 3 - - - 0 None
2018-04-24 14:00 39 - - 0 220° 1 - - - 0 None
2018-04-24 13:00 36 - - 0 80° 2 - - - 0 None
2018-04-24 12:00 35 - - 0 90° 2 - - - 0 None
2018-04-24 11:00 37 - - 0 90° 1 - - - 0 None
2018-04-24 10:00 32 - - 0 80° 1 - - - 0 None
2018-04-24 09:00 31 - - 0 70° 2 - - - 0 None
2018-04-24 08:00 32 - - 0 90° 2 - - - 0 None
2018-04-24 07:00 34 - - 0 80° 2 - - - 0 None
2018-04-24 06:00 34 - - 0 170° 1 - - - 0 None

Support USWX by starting your Amazon purchase here.